Time;durP1;ratioP1;P1;durP2;ratioP2;P2;SDS_P1;SDS_P2;PMS_P1;PMS_P2;Temp;Humidity;BMP_temperature;BMP_pressure;BME280_temperature;BME280_humidity;BME280_pressure;Samples;Min_cycle;Max_cycle;Signal;HPM_P1;HPM_P2
2023/07/26 00:00:18;;;;;;;4.40;1.40;;;14.20;99.90;;;;;;5003711;28;20408;-76
2023/07/26 00:02:43;;;;;;;1.13;1.00;;;14.20;99.90;;;;;;5007725;28;20485;-76
2023/07/26 00:05:09;;;;;;;0.95;0.82;;;14.20;99.90;;;;;;5002775;28;20050;-76
2023/07/26 00:07:34;;;;;;;1.92;1.10;;;14.20;99.90;;;;;;5002361;28;20045;-76
2023/07/26 00:10:00;;;;;;;2.83;2.30;;;14.20;99.90;;;;;;5001790;28;20077;-76
2023/07/26 00:12:26;;;;;;;1.48;1.20;;;14.20;99.90;;;;;;5003306;28;20131;-76
2023/07/26 00:14:53;;;;;;;0.75;0.75;;;14.20;99.90;;;;;;5011781;28;20040;-75
2023/07/26 00:17:18;;;;;;;2.72;1.27;;;14.20;99.90;;;;;;5021196;28;20045;-75
2023/07/26 00:19:44;;;;;;;2.03;1.50;;;14.20;99.90;;;;;;5022286;28;20128;-75
2023/07/26 00:22:09;;;;;;;1.52;1.23;;;14.20;99.90;;;;;;5024885;28;20515;-75
2023/07/26 00:24:35;;;;;;;2.08;1.23;;;14.10;99.90;;;;;;5026390;28;20049;-75
2023/07/26 00:27:01;;;;;;;2.30;1.30;;;14.10;99.90;;;;;;5025756;28;20135;-76
2023/07/26 00:29:26;;;;;;;3.30;1.40;;;14.10;99.90;;;;;;5026273;28;20595;-75
2023/07/26 00:31:52;;;;;;;3.67;1.42;;;14.10;99.90;;;;;;5018037;28;20119;-76
2023/07/26 00:34:17;;;;;;;2.35;1.35;;;14.00;99.90;;;;;;5005984;28;20077;-76
2023/07/26 00:36:43;;;;;;;1.67;1.10;;;14.00;99.90;;;;;;5018541;28;20061;-76
2023/07/26 00:39:09;;;;;;;2.28;1.30;;;14.00;99.90;;;;;;5025295;28;20057;-75
2023/07/26 00:41:34;;;;;;;2.50;1.10;;;14.00;99.90;;;;;;5024674;28;20049;-75
2023/07/26 00:44:00;;;;;;;5.57;1.20;;;14.00;99.90;;;;;;5025284;28;20046;-77
2023/07/26 00:46:26;;;;;;;1.60;1.10;;;14.00;99.90;;;;;;5026392;28;20492;-75
2023/07/26 00:48:52;;;;;;;2.05;1.13;;;14.00;99.90;;;;;;5017853;28;20511;-76
2023/07/26 00:51:18;;;;;;;3.00;1.30;;;14.00;99.90;;;;;;5015080;28;20042;-76
2023/07/26 00:53:44;;;;;;;1.30;1.10;;;14.10;99.90;;;;;;5025025;28;20044;-76
2023/07/26 00:56:10;;;;;;;2.85;1.15;;;14.00;99.90;;;;;;5025318;28;20053;-76
2023/07/26 00:58:36;;;;;;;2.55;1.25;;;14.00;99.90;;;;;;5025347;28;20033;-76
2023/07/26 01:01:03;;;;;;;2.05;1.15;;;14.00;99.90;;;;;;5024005;28;20046;-76
2023/07/26 01:03:29;;;;;;;1.58;1.15;;;14.00;99.90;;;;;;5025008;28;20054;-76
2023/07/26 01:06:29;;;;;;;0.95;0.90;;;14.00;99.90;;;;;;5026116;28;20045;-76
2023/07/26 01:09:06;;;;;;;1.30;1.10;;;14.00;99.90;;;;;;5024513;28;20057;-76
2023/07/26 01:12:06;;;;;;;4.03;0.88;;;14.00;99.90;;;;;;5025694;28;20133;-76
2023/07/26 01:15:06;;;;;;;1.75;0.80;;;14.00;99.90;;;;;;5024878;28;20484;-75
2023/07/26 01:17:32;;;;;;;0.80;0.77;;;14.10;99.90;;;;;;5023957;28;20107;-76
2023/07/26 01:19:57;;;;;;;2.15;0.68;;;14.10;99.90;;;;;;5025525;28;20037;-76
2023/07/26 01:22:23;;;;;;;2.45;0.90;;;14.10;99.90;;;;;;5023948;28;20057;-76
2023/07/26 01:24:48;;;;;;;0.88;0.73;;;14.10;99.90;;;;;;5025130;28;20057;-76
2023/07/26 01:27:14;;;;;;;2.55;1.00;;;14.10;99.90;;;;;;5025115;28;20084;-76
2023/07/26 01:29:40;;;;;;;1.27;0.60;;;14.10;99.90;;;;;;5024780;28;20483;-75
2023/07/26 01:32:12;;;;;;;1.30;0.70;;;14.10;99.90;;;;;;5024757;28;20046;-76
2023/07/26 01:34:39;;;;;;;1.92;1.38;;;14.10;99.90;;;;;;5024328;28;20045;-76
2023/07/26 01:37:06;;;;;;;1.15;0.75;;;14.10;99.90;;;;;;5023974;28;20053;-76
2023/07/26 01:39:31;;;;;;;0.95;0.70;;;14.00;99.90;;;;;;5024911;28;20053;-76
2023/07/26 01:41:58;;;;;;;0.88;0.55;;;14.00;99.90;;;;;;5025030;28;20045;-75
2023/07/26 01:44:24;;;;;;;1.80;0.90;;;14.00;99.90;;;;;;5024592;28;20107;-76
2023/07/26 01:46:52;;;;;;;3.25;0.80;;;14.00;99.90;;;;;;5023665;28;20439;-76
2023/07/26 01:49:20;;;;;;;2.88;1.08;;;14.00;99.90;;;;;;5024030;28;20124;-76
2023/07/26 01:51:46;;;;;;;2.40;0.82;;;13.90;99.90;;;;;;5023451;28;20033;-75
2023/07/26 01:54:12;;;;;;;1.83;0.85;;;13.90;99.90;;;;;;5016539;28;20084;-75
2023/07/26 01:56:37;;;;;;;0.80;0.57;;;13.90;99.90;;;;;;5005958;28;20048;-75
2023/07/26 01:59:03;;;;;;;3.00;0.90;;;13.80;99.90;;;;;;5024149;28;20121;-75
2023/07/26 02:01:28;;;;;;;5.38;1.02;;;13.80;99.90;;;;;;5024109;28;20049;-75
2023/07/26 02:03:54;;;;;;;2.45;0.73;;;13.80;99.90;;;;;;5015637;28;20068;-76
2023/07/26 02:06:20;;;;;;;3.05;1.70;;;13.80;99.90;;;;;;5021935;28;20103;-77
2023/07/26 02:08:45;;;;;;;1.35;0.85;;;13.80;99.90;;;;;;5024394;28;20053;-75
2023/07/26 02:11:11;;;;;;;3.05;1.45;;;13.80;99.90;;;;;;5023971;28;20037;-76
2023/07/26 02:13:36;;;;;;;2.72;0.55;;;13.80;99.90;;;;;;5024334;28;20046;-76
2023/07/26 02:16:02;;;;;;;4.15;0.88;;;13.80;99.90;;;;;;5023993;28;20033;-75
2023/07/26 02:18:28;;;;;;;1.70;1.10;;;13.90;99.90;;;;;;5024267;28;20033;-76
2023/07/26 02:20:54;;;;;;;2.13;0.77;;;13.80;99.90;;;;;;5023677;28;20581;-76
2023/07/26 02:23:19;;;;;;;3.95;1.10;;;13.90;99.90;;;;;;5023169;28;20052;-75
2023/07/26 02:25:45;;;;;;;5.28;1.10;;;13.90;99.90;;;;;;5023810;28;20503;-75
2023/07/26 02:28:10;;;;;;;3.65;1.10;;;13.90;99.90;;;;;;5022483;28;20042;-76
2023/07/26 02:30:36;;;;;;;1.45;0.70;;;13.90;99.90;;;;;;5024013;28;20048;-76
2023/07/26 02:33:02;;;;;;;4.97;1.20;;;13.90;99.90;;;;;;5023738;28;20187;-76
2023/07/26 02:35:28;;;;;;;4.65;1.15;;;13.90;99.90;;;;;;5024313;28;20459;-76
2023/07/26 02:37:53;;;;;;;1.73;1.23;;;13.90;99.90;;;;;;5022586;28;20175;-76
2023/07/26 02:40:19;;;;;;;0.73;0.70;;;13.90;99.90;;;;;;5023938;28;20135;-76
2023/07/26 02:42:45;;;;;;;2.53;1.25;;;13.80;99.90;;;;;;5023515;28;20045;-76
2023/07/26 02:45:10;;;;;;;2.33;1.10;;;13.90;99.90;;;;;;5006985;28;20055;-76
2023/07/26 02:47:36;;;;;;;2.97;1.23;;;13.90;99.90;;;;;;5008188;28;20070;-76
2023/07/26 02:50:04;;;;;;;3.20;1.17;;;13.90;99.90;;;;;;5023500;28;20049;-76
2023/07/26 02:52:32;;;;;;;0.90;0.80;;;13.90;99.90;;;;;;5022686;28;20741;-77
2023/07/26 02:54:58;;;;;;;1.83;1.10;;;13.90;99.90;;;;;;5022230;28;20075;-76
2023/07/26 02:57:24;;;;;;;3.92;1.75;;;13.90;99.90;;;;;;5005241;28;20049;-76
2023/07/26 02:59:49;;;;;;;2.50;0.93;;;13.90;99.90;;;;;;5018448;28;20129;-76
2023/07/26 03:02:15;;;;;;;2.63;1.20;;;13.90;99.90;;;;;;5009992;28;20084;-76
2023/07/26 03:04:41;;;;;;;2.83;1.05;;;13.90;99.90;;;;;;5022043;28;20077;-76
2023/07/26 03:07:06;;;;;;;5.60;0.95;;;13.90;99.90;;;;;;5022266;28;20034;-76
2023/07/26 03:09:32;;;;;;;5.07;1.10;;;13.90;99.90;;;;;;5023309;28;20044;-77
2023/07/26 03:11:58;;;;;;;1.90;1.00;;;13.90;99.90;;;;;;5022390;28;20115;-75
2023/07/26 03:14:23;;;;;;;1.23;0.80;;;13.90;99.90;;;;;;5021897;28;20124;-76
2023/07/26 03:16:49;;;;;;;1.13;0.93;;;13.90;99.90;;;;;;5023017;28;20056;-76
2023/07/26 03:19:14;;;;;;;2.33;1.15;;;13.90;99.90;;;;;;5023188;28;20488;-76
2023/07/26 03:21:40;;;;;;;7.32;1.67;;;13.90;99.90;;;;;;5002209;28;20042;-76
2023/07/26 03:24:05;;;;;;;2.03;1.20;;;13.80;99.90;;;;;;5001735;28;20117;-76
2023/07/26 03:26:31;;;;;;;2.67;1.15;;;13.80;99.90;;;;;;5003878;28;20037;-77
2023/07/26 03:28:57;;;;;;;3.47;1.08;;;13.80;99.90;;;;;;5022573;28;20342;-76
2023/07/26 03:31:22;;;;;;;2.75;0.80;;;13.80;99.90;;;;;;5022669;28;20041;-76
2023/07/26 03:33:48;;;;;;;2.65;1.05;;;13.80;99.90;;;;;;5023092;28;20099;-76
2023/07/26 03:36:13;;;;;;;3.22;1.20;;;13.70;99.90;;;;;;5022071;28;20045;-75
2023/07/26 03:38:39;;;;;;;2.65;1.55;;;13.70;99.90;;;;;;5023236;28;20124;-76
2023/07/26 03:41:04;;;;;;;1.50;1.00;;;13.70;99.90;;;;;;5004674;28;20052;-76
2023/07/26 03:43:30;;;;;;;4.72;1.05;;;13.70;99.90;;;;;;5023201;28;20494;-76
2023/07/26 03:45:56;;;;;;;1.70;0.77;;;13.70;99.90;;;;;;5022184;28;20042;-76
2023/07/26 03:48:21;;;;;;;1.17;0.77;;;13.70;99.90;;;;;;5022724;28;20080;-76
2023/07/26 03:50:47;;;;;;;3.28;0.85;;;13.70;99.90;;;;;;5021997;28;20053;-76
2023/07/26 03:53:12;;;;;;;4.32;1.00;;;13.80;99.90;;;;;;5005116;28;20056;-76
2023/07/26 03:55:38;;;;;;;3.22;1.27;;;13.70;99.90;;;;;;5026573;28;20049;-76
2023/07/26 03:58:04;;;;;;;3.20;1.52;;;13.70;99.90;;;;;;5025098;28;20076;-76
2023/07/26 04:00:29;;;;;;;2.20;0.98;;;13.60;99.90;;;;;;5025942;28;20056;-77
2023/07/26 04:02:55;;;;;;;3.22;1.27;;;13.60;99.90;;;;;;5014530;28;20050;-76
2023/07/26 04:05:21;;;;;;;2.65;1.10;;;13.70;99.90;;;;;;5021572;28;20050;-76
2023/07/26 04:07:46;;;;;;;1.95;1.10;;;13.60;99.90;;;;;;5006390;28;20136;-75
2023/07/26 04:10:12;;;;;;;2.50;0.90;;;13.70;99.90;;;;;;5021491;28;20065;-76
2023/07/26 04:12:37;;;;;;;1.10;0.95;;;13.70;99.90;;;;;;5006834;28;20493;-75
2023/07/26 04:15:03;;;;;;;1.65;1.00;;;13.70;99.90;;;;;;5016030;28;20045;-76
2023/07/26 04:17:29;;;;;;;3.55;0.90;;;13.70;99.90;;;;;;5025519;28;20407;-76
2023/07/26 04:19:54;;;;;;;1.92;1.30;;;13.80;99.90;;;;;;5025650;28;20128;-76
2023/07/26 04:22:20;;;;;;;3.35;1.05;;;13.70;99.90;;;;;;5025021;28;20042;-76
2023/07/26 04:24:46;;;;;;;4.22;1.20;;;13.80;99.90;;;;;;5025088;28;20124;-76
2023/07/26 04:27:11;;;;;;;1.13;0.63;;;13.80;99.90;;;;;;5024652;28;20053;-76
2023/07/26 04:29:38;;;;;;;3.20;0.85;;;13.80;99.90;;;;;;5026075;28;20052;-75
2023/07/26 04:32:04;;;;;;;4.07;1.02;;;13.90;99.90;;;;;;5026150;28;20472;-76
2023/07/26 04:34:29;;;;;;;2.75;0.75;;;13.80;99.90;;;;;;5026674;28;20101;-78
2023/07/26 04:36:55;;;;;;;1.88;0.93;;;13.80;99.90;;;;;;5025314;28;20042;-76
2023/07/26 04:39:20;;;;;;;3.95;0.63;;;13.80;99.90;;;;;;5025717;28;20084;-76
2023/07/26 04:41:46;;;;;;;3.40;1.55;;;13.80;99.90;;;;;;5026193;28;20037;-76
2023/07/26 04:44:11;;;;;;;1.13;0.90;;;13.90;99.90;;;;;;5025212;28;20498;-76
2023/07/26 04:46:37;;;;;;;2.20;1.27;;;13.90;99.90;;;;;;5008059;28;20033;-76
2023/07/26 04:49:03;;;;;;;1.33;0.95;;;13.80;99.90;;;;;;5024283;28;20045;-76
2023/07/26 04:51:29;;;;;;;2.95;0.90;;;13.80;99.90;;;;;;5025549;28;20084;-76
2023/07/26 04:53:55;;;;;;;4.03;1.38;;;13.80;99.90;;;;;;5025790;28;20451;-76
2023/07/26 04:56:25;;;;;;;2.00;0.80;;;13.80;99.90;;;;;;5024024;28;20041;-76
2023/07/26 04:58:51;;;;;;;1.70;0.98;;;13.80;99.90;;;;;;5025770;28;20034;-76
2023/07/26 05:01:17;;;;;;;2.25;1.17;;;13.80;99.90;;;;;;5025636;28;20048;-76
2023/07/26 05:03:42;;;;;;;2.10;0.85;;;13.80;99.90;;;;;;5023876;28;20052;-76
2023/07/26 05:06:10;;;;;;;1.85;1.35;;;13.80;99.90;;;;;;5023564;28;20052;-76
2023/07/26 05:08:36;;;;;;;2.65;0.90;;;13.80;99.90;;;;;;5025336;28;20135;-76
2023/07/26 05:11:01;;;;;;;1.95;0.80;;;13.80;99.90;;;;;;5025237;28;20104;-76
2023/07/26 05:13:27;;;;;;;3.45;1.02;;;13.80;99.90;;;;;;5024637;28;20049;-76
2023/07/26 05:15:53;;;;;;;2.63;1.23;;;13.80;99.90;;;;;;5024939;28;20126;-76
2023/07/26 05:18:18;;;;;;;1.33;1.08;;;13.80;99.90;;;;;;5023884;28;20045;-76
2023/07/26 05:20:44;;;;;;;9.57;1.60;;;13.80;99.90;;;;;;5024274;28;20093;-76
2023/07/26 05:23:09;;;;;;;26.58;3.17;;;13.80;99.90;;;;;;5023626;28;20482;-81
2023/07/26 05:25:38;;;;;;;3.45;0.90;;;13.70;99.90;;;;;;5021883;28;20034;-81
2023/07/26 05:28:03;;;;;;;2.50;0.82;;;13.30;99.90;;;;;;5006033;28;20100;-83
2023/07/26 05:30:29;;;;;;;1.45;0.75;;;13.10;99.90;;;;;;5023000;28;20515;-81
2023/07/26 05:32:55;;;;;;;1.60;0.60;;;12.90;99.90;;;;;;5025377;28;20033;-81
2023/07/26 05:35:20;;;;;;;1.25;0.98;;;12.70;99.90;;;;;;5025386;28;20045;-80
2023/07/26 05:37:46;;;;;;;3.45;0.70;;;12.60;99.90;;;;;;5024512;28;20038;-81
2023/07/26 05:40:11;;;;;;;1.52;0.85;;;12.60;99.90;;;;;;5025329;28;20119;-80
2023/07/26 05:42:37;;;;;;;2.60;0.93;;;12.60;99.90;;;;;;5025335;28;20121;-79
2023/07/26 05:45:03;;;;;;;1.40;0.77;;;12.60;99.90;;;;;;5025350;28;20073;-79
2023/07/26 05:47:30;;;;;;;2.45;0.98;;;12.60;99.90;;;;;;5025937;28;20103;-80
2023/07/26 05:49:56;;;;;;;12.10;1.63;;;12.60;99.90;;;;;;5023955;28;20053;-79
2023/07/26 05:52:21;;;;;;;2.58;1.10;;;12.60;99.90;;;;;;5024197;28;20663;-80
2023/07/26 05:54:47;;;;;;;4.55;1.30;;;12.60;99.90;;;;;;5024958;28;20068;-79
2023/07/26 05:57:13;;;;;;;3.33;1.15;;;12.70;99.90;;;;;;5023487;28;20037;-82
2023/07/26 05:59:38;;;;;;;5.28;0.77;;;12.70;99.90;;;;;;5024819;28;20481;-81
2023/07/26 06:02:04;;;;;;;1.70;0.80;;;12.70;99.90;;;;;;5024070;28;20042;-79
2023/07/26 06:04:30;;;;;;;1.95;0.80;;;12.70;99.90;;;;;;5023603;28;20144;-79
2023/07/26 06:06:56;;;;;;;2.15;1.25;;;12.70;99.90;;;;;;5018353;28;20124;-79
2023/07/26 06:09:25;;;;;;;2.95;0.90;;;12.70;99.90;;;;;;5015169;28;20042;-80
2023/07/26 06:11:51;;;;;;;1.70;0.80;;;12.70;99.90;;;;;;5015805;28;20100;-79
2023/07/26 06:14:17;;;;;;;1.30;1.00;;;12.60;99.90;;;;;;5018078;28;20552;-79
2023/07/26 06:16:42;;;;;;;1.13;1.00;;;12.70;99.90;;;;;;5010343;28;20124;-79
2023/07/26 06:19:08;;;;;;;4.43;0.90;;;12.70;99.90;;;;;;5010500;28;20041;-79
2023/07/26 06:21:34;;;;;;;1.73;0.90;;;12.70;99.90;;;;;;5021673;28;20053;-79
2023/07/26 06:23:59;;;;;;;1.40;1.20;;;12.70;99.90;;;;;;5024182;28;20033;-79
2023/07/26 06:26:25;;;;;;;1.45;1.10;;;12.70;99.90;;;;;;5014327;28;20044;-79
2023/07/26 06:28:51;;;;;;;1.67;0.95;;;12.70;99.90;;;;;;5022895;28;20132;-79
2023/07/26 06:31:16;;;;;;;1.80;1.30;;;12.70;99.90;;;;;;5024341;28;20037;-79
2023/07/26 06:33:42;;;;;;;2.38;1.10;;;12.70;99.90;;;;;;5018581;28;20088;-79
2023/07/26 06:36:07;;;;;;;1.35;0.80;;;12.70;99.90;;;;;;5021475;28;20049;-80
2023/07/26 06:38:33;;;;;;;2.65;0.98;;;12.80;99.90;;;;;;5024191;28;20135;-79
2023/07/26 06:41:00;;;;;;;2.63;1.02;;;12.80;99.90;;;;;;5023901;28;20037;-79
2023/07/26 06:43:26;;;;;;;4.30;1.20;;;12.80;99.90;;;;;;4997065;28;20068;-79
2023/07/26 06:45:52;;;;;;;3.75;0.80;;;12.80;99.90;;;;;;5022361;28;20484;-80
2023/07/26 06:48:18;;;;;;;1.48;1.08;;;12.80;99.90;;;;;;5022957;28;20489;-79
2023/07/26 06:50:44;;;;;;;2.58;1.02;;;12.80;99.90;;;;;;5021169;28;20049;-79
2023/07/26 06:53:10;;;;;;;3.05;1.08;;;12.80;99.90;;;;;;5022618;28;21012;-79
2023/07/26 06:55:37;;;;;;;2.13;1.30;;;12.80;99.90;;;;;;5023377;28;20048;-82
2023/07/26 06:58:03;;;;;;;2.65;1.10;;;12.80;99.90;;;;;;5023783;28;20445;-77
2023/07/26 07:00:28;;;;;;;1.98;0.93;;;12.80;99.90;;;;;;5016541;28;20096;-77
2023/07/26 07:03:02;;;;;;;4.07;1.08;;;12.70;99.90;;;;;;5007642;28;20058;-78
2023/07/26 07:05:30;;;;;;;3.10;1.58;;;12.80;99.90;;;;;;5022168;28;20192;-80
2023/07/26 07:07:56;;;;;;;3.08;1.35;;;12.80;99.90;;;;;;5022012;28;20523;-78
2023/07/26 07:10:22;;;;;;;3.53;1.20;;;12.80;99.90;;;;;;5018497;28;20069;-79
2023/07/26 07:12:48;;;;;;;3.72;1.63;;;12.90;99.90;;;;;;5023859;28;20545;-80
2023/07/26 07:15:14;;;;;;;2.72;1.08;;;12.90;99.90;;;;;;5022652;28;20049;-76
2023/07/26 07:17:40;;;;;;;2.70;1.27;;;12.90;99.90;;;;;;5009831;28;20080;-78
2023/07/26 07:20:07;;;;;;;4.25;1.20;;;13.00;99.90;;;;;;5022348;28;20073;-78
2023/07/26 07:22:33;;;;;;;2.70;1.55;;;13.00;99.90;;;;;;5021164;28;20053;-78
2023/07/26 07:24:59;;;;;;;2.72;1.42;;;13.10;99.90;;;;;;5023292;28;20095;-78
2023/07/26 07:27:24;;;;;;;6.78;1.40;;;13.20;99.90;;;;;;5005430;28;20034;-79
2023/07/26 07:29:50;;;;;;;4.22;1.30;;;13.20;99.90;;;;;;5002167;28;20440;-77
2023/07/26 07:32:16;;;;;;;2.83;1.55;;;13.20;99.90;;;;;;5016932;28;20040;-78
2023/07/26 07:34:42;;;;;;;4.63;1.40;;;13.30;99.90;;;;;;5021612;28;20037;-77
2023/07/26 07:37:08;;;;;;;4.95;1.40;;;13.30;99.90;;;;;;5005912;28;20042;-79
2023/07/26 07:39:34;;;;;;;3.75;1.90;;;13.40;99.90;;;;;;5017473;28;20057;-79
2023/07/26 07:42:00;;;;;;;5.53;1.50;;;13.50;99.90;;;;;;5002516;28;20046;-79
2023/07/26 07:44:28;;;;;;;6.38;2.05;;;13.50;99.90;;;;;;5001854;28;20131;-80
2023/07/26 07:46:54;;;;;;;4.63;1.50;;;13.60;99.90;;;;;;5003734;28;20042;-78
2023/07/26 07:49:19;;;;;;;5.70;2.00;;;13.60;99.90;;;;;;5015172;28;20045;-79
2023/07/26 07:51:45;;;;;;;4.15;2.05;;;13.60;99.90;;;;;;5021193;28;20140;-79
2023/07/26 07:54:10;;;;;;;4.20;1.58;;;13.60;99.90;;;;;;5021505;28;20088;-79
2023/07/26 07:56:36;;;;;;;6.35;2.13;;;13.60;99.90;;;;;;5023592;28;20041;-78
2023/07/26 07:59:02;;;;;;;5.95;1.98;;;13.70;99.90;;;;;;5020286;28;20081;-79
2023/07/26 08:01:27;;;;;;;5.45;1.98;;;13.80;99.90;;;;;;5013444;28;20662;-78
2023/07/26 08:03:53;;;;;;;4.65;2.03;;;13.90;99.90;;;;;;5022343;28;20323;-79
2023/07/26 08:06:19;;;;;;;4.75;2.35;;;14.00;99.90;;;;;;5020466;28;20049;-79
2023/07/26 08:08:44;;;;;;;4.15;1.77;;;14.00;99.90;;;;;;5013618;28;20503;-80
2023/07/26 08:11:10;;;;;;;7.35;1.98;;;14.10;99.90;;;;;;5003103;28;20046;-79
2023/07/26 08:13:36;;;;;;;7.15;2.30;;;14.20;99.90;;;;;;5010780;28;20053;-78
2023/07/26 08:16:02;;;;;;;6.47;2.30;;;14.20;99.90;;;;;;5019498;28;20050;-79
2023/07/26 08:18:30;;;;;;;4.78;2.08;;;14.20;99.90;;;;;;5015228;28;20052;-79
2023/07/26 08:20:56;;;;;;;5.35;2.88;;;14.20;99.90;;;;;;5001546;28;20503;-79
2023/07/26 08:23:22;;;;;;;6.70;2.35;;;14.30;99.90;;;;;;5003036;28;20043;-79
2023/07/26 08:25:47;;;;;;;6.53;2.17;;;14.30;99.90;;;;;;5003211;28;20046;-77
2023/07/26 08:28:13;;;;;;;8.82;2.88;;;14.40;99.90;;;;;;5015394;28;20404;-78
2023/07/26 08:30:38;;;;;;;12.07;3.28;;;14.40;99.90;;;;;;4987370;28;20057;-79
2023/07/26 08:33:04;;;;;;;7.72;2.85;;;14.50;99.90;;;;;;5007417;28;20053;-80
2023/07/26 08:35:30;;;;;;;7.72;2.88;;;14.60;99.90;;;;;;5021265;28;20056;-80
2023/07/26 08:37:56;;;;;;;5.35;2.60;;;14.60;99.90;;;;;;5020789;28;20049;-79
2023/07/26 08:40:21;;;;;;;9.50;3.30;;;14.60;99.90;;;;;;5019294;28;20436;-79
2023/07/26 08:42:48;;;;;;;9.50;2.65;;;14.60;99.90;;;;;;5006548;28;20392;-79
2023/07/26 08:45:14;;;;;;;11.18;2.78;;;14.60;99.90;;;;;;5022897;28;20635;-79
2023/07/26 08:47:41;;;;;;;7.35;2.33;;;14.50;99.90;;;;;;5026004;28;20041;-79
2023/07/26 08:50:07;;;;;;;5.97;2.15;;;14.40;99.90;;;;;;5025110;28;20168;-79
2023/07/26 08:52:33;;;;;;;5.80;2.17;;;14.40;99.90;;;;;;5024722;28;20060;-80
2023/07/26 08:55:00;;;;;;;6.28;2.13;;;14.40;99.90;;;;;;5006986;28;20042;-80
2023/07/26 08:57:26;;;;;;;4.05;2.15;;;14.40;99.90;;;;;;5022306;28;20509;-79
2023/07/26 08:59:52;;;;;;;6.32;2.35;;;14.50;99.90;;;;;;5026389;28;20045;-79
2023/07/26 09:02:19;;;;;;;5.35;2.17;;;14.50;99.90;;;;;;5025217;28;20148;-80
2023/07/26 09:04:46;;;;;;;7.65;2.10;;;14.50;99.90;;;;;;5025846;28;20045;-79
2023/07/26 09:07:12;;;;;;;4.72;2.00;;;14.50;99.90;;;;;;5023527;28;20037;-79
2023/07/26 09:09:38;;;;;;;4.80;2.10;;;14.60;99.90;;;;;;5021575;28;20041;-80
2023/07/26 09:12:04;;;;;;;4.72;1.75;;;14.60;99.90;;;;;;5022797;28;20924;-80
2023/07/26 09:14:32;;;;;;;5.88;2.05;;;14.60;99.90;;;;;;5011742;28;20041;-79
2023/07/26 09:16:59;;;;;;;4.95;1.60;;;14.70;99.90;;;;;;5017564;28;20045;-79
2023/07/26 09:19:35;;;;;;;3.75;1.45;;;14.70;99.90;;;;;;5022412;28;20041;-79
2023/07/26 09:22:07;;;;;;;3.15;1.67;;;14.80;99.90;;;;;;5019081;28;20061;-80
2023/07/26 09:24:36;;;;;;;;;;;14.80;99.90;;;;;;5006859;28;20037;-79
2023/07/26 09:27:07;;;;;;;4.57;1.63;;;14.80;99.90;;;;;;5009046;28;19993;-79
2023/07/26 09:29:34;;;;;;;1.88;1.55;;;14.70;99.90;;;;;;5011938;28;20033;-81
2023/07/26 09:31:59;;;;;;;2.65;1.35;;;14.70;99.90;;;;;;5007888;28;20452;-80
2023/07/26 09:34:25;;;;;;;5.22;1.85;;;14.60;99.90;;;;;;5015378;28;20137;-79
2023/07/26 09:36:52;;;;;;;3.95;1.38;;;14.60;99.90;;;;;;5010144;28;20041;-79
2023/07/26 09:39:19;;;;;;;2.75;1.50;;;14.70;99.90;;;;;;5017098;28;20061;-77
2023/07/26 09:41:46;;;;;;;5.32;2.00;;;14.70;99.90;;;;;;5013004;28;20040;-78
2023/07/26 09:44:19;;;;;;;2.67;1.98;;;14.70;99.90;;;;;;5022963;28;20092;-78
2023/07/26 09:46:49;;;;;;;4.45;2.17;;;14.70;99.90;;;;;;5007331;28;20454;-78
2023/07/26 09:49:16;;;;;;;3.95;2.03;;;14.70;99.90;;;;;;5024643;28;20102;-79
2023/07/26 09:51:43;;;;;;;3.72;2.15;;;14.80;99.90;;;;;;5022984;28;20025;-79
2023/07/26 09:54:10;;;;;;;5.60;1.77;;;14.80;99.90;;;;;;5011115;28;20536;-79
2023/07/26 09:56:38;;;;;;;5.50;2.13;;;14.70;99.90;;;;;;5004513;28;20050;-79
2023/07/26 09:59:08;;;;;;;6.63;2.15;;;14.70;99.90;;;;;;5023820;28;20052;-78
2023/07/26 10:01:42;;;;;;;2.90;1.45;;;14.70;99.90;;;;;;5011030;28;20361;-79
2023/07/26 10:04:12;;;;;;;6.40;1.90;;;14.70;99.90;;;;;;5018885;28;20493;-78
2023/07/26 10:06:39;;;;;;;6.18;2.35;;;14.80;99.90;;;;;;5013809;28;20034;-79
2023/07/26 10:09:05;;;;;;;8.57;2.67;;;14.90;99.90;;;;;;5023702;28;20633;-78
2023/07/26 10:11:32;;;;;;;9.13;2.00;;;14.90;99.90;;;;;;5005521;28;20041;-79
2023/07/26 10:13:59;;;;;;;5.45;1.95;;;14.90;99.90;;;;;;5004470;28;20491;-78
2023/07/26 10:16:26;;;;;;;4.15;2.15;;;15.00;99.90;;;;;;5018931;28;20041;-79
2023/07/26 10:18:55;;;;;;;4.32;2.03;;;15.10;99.90;;;;;;5004676;28;20049;-79
2023/07/26 10:21:22;;;;;;;1.85;1.15;;;15.00;99.90;;;;;;5015179;28;20045;-79
2023/07/26 10:23:49;;;;;;;2.70;1.35;;;14.90;99.90;;;;;;5004206;28;20034;-79
2023/07/26 10:26:16;;;;;;;5.47;1.83;;;14.90;99.90;;;;;;5002879;28;20056;-78
2023/07/26 10:28:42;;;;;;;4.53;2.03;;;14.90;99.90;;;;;;5008878;28;20034;-79
2023/07/26 10:31:08;;;;;;;2.03;1.40;;;15.00;99.90;;;;;;5006529;28;20041;-80
2023/07/26 10:33:44;;;;;;;2.00;1.60;;;14.90;99.90;;;;;;5009464;28;20041;-79
2023/07/26 10:36:10;;;;;;;3.85;1.27;;;14.90;99.90;;;;;;5013760;28;20081;-80
2023/07/26 10:38:48;;;;;;;2.42;1.00;;;14.90;99.90;;;;;;5005102;28;20034;-77
2023/07/26 10:41:29;;;;;;;4.35;1.73;;;14.80;99.90;;;;;;5013078;28;20504;-78
2023/07/26 10:44:04;;;;;;;2.40;1.45;;;14.70;99.90;;;;;;5015011;28;20094;-79
2023/07/26 10:46:35;;;;;;;5.63;1.33;;;14.70;99.90;;;;;;5002764;28;20183;-78
2023/07/26 10:49:16;;;;;;;4.60;1.67;;;14.70;99.90;;;;;;5018524;28;20084;-79
2023/07/26 10:51:57;;;;;;;5.13;1.67;;;14.70;99.90;;;;;;5018902;28;20050;-83
2023/07/26 10:54:44;;;;;;;8.90;1.98;;;14.70;99.90;;;;;;5019543;28;20518;-78
2023/07/26 10:57:16;;;;;;;4.07;1.50;;;14.70;99.90;;;;;;5018653;28;20081;-78
2023/07/26 11:00:06;;;;;;;2.90;1.70;;;14.70;99.90;;;;;;5019855;28;20092;-78
2023/07/26 11:02:45;;;;;;;4.18;1.50;;;14.60;99.90;;;;;;5011821;28;21657;-81
2023/07/26 11:05:15;;;;;;;4.07;1.90;;;14.70;99.90;;;;;;5022052;28;20060;-80
2023/07/26 11:08:07;;;;;;;3.00;1.73;;;14.70;99.90;;;;;;5014882;28;20049;-81
2023/07/26 11:10:49;;;;;;;;;;;14.80;99.90;;;;;;4999618;28;20205;-80
2023/07/26 11:13:20;;;;;;;1.98;1.60;;;14.90;99.90;;;;;;5003155;28;20010;-78
2023/07/26 11:15:50;;;;;;;4.43;1.25;;;14.90;99.90;;;;;;5015353;28;20049;-79
2023/07/26 11:18:17;;;;;;;1.75;1.27;;;14.90;99.90;;;;;;5018179;28;20060;-78
2023/07/26 11:20:51;;;;;;;3.53;1.40;;;14.90;99.90;;;;;;5022303;28;20041;-79
2023/07/26 11:23:28;;;;;;;4.60;1.45;;;14.80;99.90;;;;;;4986654;28;20050;-79
2023/07/26 11:25:59;;;;;;;2.33;1.25;;;14.90;99.90;;;;;;5003372;28;20550;-78
2023/07/26 11:28:29;;;;;;;3.17;1.05;;;14.90;99.90;;;;;;5021226;28;20084;-78
2023/07/26 11:30:56;;;;;;;4.03;1.50;;;14.90;99.90;;;;;;5023521;28;20041;-78
2023/07/26 11:33:33;;;;;;;2.63;1.55;;;14.90;99.90;;;;;;5022781;28;20396;-78
2023/07/26 11:36:00;;;;;;;1.73;1.15;;;14.90;99.90;;;;;;5022265;28;20423;-79
2023/07/26 11:38:26;;;;;;;5.25;1.30;;;15.00;99.90;;;;;;5021537;28;20064;-78
2023/07/26 11:40:58;;;;;;;2.28;1.15;;;15.10;99.90;;;;;;5020048;28;20542;-78
2023/07/26 11:43:27;;;;;;;1.30;1.20;;;15.10;99.90;;;;;;5021831;28;20423;-78
2023/07/26 11:45:54;;;;;;;1.30;0.82;;;15.20;99.90;;;;;;5022801;28;20041;-79
2023/07/26 11:48:20;;;;;;;1.00;0.80;;;15.20;99.90;;;;;;5016707;28;20038;-78
2023/07/26 11:50:45;;;;;;;1.73;1.30;;;15.20;99.90;;;;;;5020895;28;20450;-78
2023/07/26 11:53:13;;;;;;;1.60;1.00;;;15.30;99.90;;;;;;5020558;28;20044;-80
2023/07/26 11:55:41;;;;;;;3.92;1.40;;;15.30;99.90;;;;;;5013324;28;20050;-79
2023/07/26 11:58:11;;;;;;;1.58;1.27;;;15.40;99.90;;;;;;5021101;28;20069;-79
2023/07/26 12:00:46;;;;;;;1.20;1.10;;;15.40;99.90;;;;;;5019366;28;20037;-80
2023/07/26 12:03:12;;;;;;;2.05;1.20;;;15.60;99.90;;;;;;5020520;28;20056;-80
2023/07/26 12:05:44;;;;;;;3.78;1.20;;;15.60;99.90;;;;;;5020911;28;20058;-80
2023/07/26 12:08:10;;;;;;;;;;;15.60;99.90;;;;;;5016764;28;20129;-80
2023/07/26 12:10:40;;;;;;;2.30;1.45;;;15.60;99.90;;;;;;5012225;28;20459;-80
2023/07/26 12:13:19;;;;;;;3.70;1.17;;;15.60;99.90;;;;;;5023195;28;20443;-79
2023/07/26 12:15:53;;;;;;;1.17;0.95;;;15.70;99.90;;;;;;5024851;28;20579;-79
2023/07/26 12:18:23;;;;;;;2.60;1.38;;;15.70;99.90;;;;;;5024594;28;20049;-80
2023/07/26 12:20:57;;;;;;;3.33;1.20;;;15.80;99.90;;;;;;5024398;28;20049;-79
2023/07/26 12:23:23;;;;;;;1.67;1.08;;;15.80;99.90;;;;;;5008633;28;20048;-80
2023/07/26 12:25:56;;;;;;;3.72;1.10;;;15.90;99.90;;;;;;5022156;28;20100;-79
2023/07/26 12:28:24;;;;;;;2.97;1.05;;;15.90;99.90;;;;;;5016229;28;20443;-79
2023/07/26 12:30:57;;;;;;;2.25;1.30;;;16.00;99.90;;;;;;5025123;28;20133;-80
2023/07/26 12:33:23;;;;;;;2.25;1.17;;;16.00;99.90;;;;;;5025093;28;20045;-79
2023/07/26 12:35:54;;;;;;;1.00;0.90;;;16.00;99.90;;;;;;5023460;28;20041;-79
2023/07/26 12:38:22;;;;;;;1.80;1.13;;;16.00;99.90;;;;;;5023770;28;20098;-80
2023/07/26 12:40:48;;;;;;;1.95;1.27;;;16.10;99.90;;;;;;5024901;28;20025;-80
2023/07/26 12:43:27;;;;;;;1.38;0.75;;;16.20;99.90;;;;;;5025861;28;20057;-80
2023/07/26 12:45:57;;;;;;;1.73;0.82;;;16.30;99.90;;;;;;5024770;28;20041;-80
2023/07/26 12:48:24;;;;;;;2.97;1.13;;;16.30;99.90;;;;;;5025818;28;20579;-79